createdAt,value
2018-08-03T00:04:22.101Z,49.69
2018-08-03T00:09:25.909Z,48.70
2018-08-03T00:14:29.754Z,48.92
2018-08-03T00:19:33.584Z,49.77
2018-08-03T00:24:37.529Z,50.50
2018-08-03T00:29:41.441Z,48.76
2018-08-03T00:34:45.405Z,49.75
2018-08-03T00:39:49.338Z,49.71
2018-08-03T00:44:53.373Z,49.68
2018-08-03T00:49:57.264Z,49.88
2018-08-03T00:55:04.188Z,50.40
2018-08-03T01:00:08.427Z,49.54
2018-08-03T01:05:12.260Z,49.74
2018-08-03T01:10:16.249Z,50.14
2018-08-03T01:15:20.015Z,49.75
2018-08-03T01:20:23.857Z,50.68
2018-08-03T01:25:28.140Z,50.57
2018-08-03T01:30:32.154Z,50.05
2018-08-03T01:35:35.998Z,50.58
2018-08-03T01:40:39.737Z,50.30
2018-08-03T01:45:43.562Z,50.62
2018-08-03T01:50:47.516Z,50.65
2018-08-03T01:55:51.349Z,50.51
2018-08-03T02:00:55.179Z,49.99
2018-08-03T02:05:59.028Z,50.38
2018-08-03T02:11:02.970Z,49.66
2018-08-03T02:16:06.881Z,51.07
2018-08-03T02:21:10.830Z,51.17
2018-08-03T02:26:14.719Z,50.51
2018-08-03T02:31:18.659Z,51.15
2018-08-03T02:36:22.557Z,50.83
2018-08-03T02:41:26.336Z,50.12
2018-08-03T02:46:30.154Z,50.31
2018-08-03T02:51:33.968Z,50.09
2018-08-03T02:56:37.845Z,50.29
2018-08-03T03:01:41.697Z,50.52
2018-08-03T03:06:45.657Z,50.05
2018-08-03T03:11:49.550Z,49.99
2018-08-03T03:16:53.403Z,49.08
2018-08-03T03:21:57.189Z,48.95
2018-08-03T03:27:01.053Z,47.83
2018-08-03T03:32:04.888Z,47.66
2018-08-03T03:37:08.799Z,47.67
2018-08-03T03:42:12.615Z,46.62
2018-08-03T03:47:16.401Z,45.12
2018-08-03T03:52:20.297Z,46.80
2018-08-03T03:57:24.147Z,46.86
2018-08-03T04:02:28.852Z,47.04
2018-08-03T04:07:32.693Z,47.94
2018-08-03T04:12:36.455Z,48.36
2018-08-03T04:17:40.218Z,49.19
2018-08-03T04:22:44.121Z,50.80
2018-08-03T04:27:47.938Z,51.66
2018-08-03T04:32:51.805Z,51.02
2018-08-03T04:37:55.629Z,49.74
2018-08-03T04:42:59.567Z,49.50
2018-08-03T04:48:03.398Z,48.02
2018-08-03T04:53:07.491Z,47.10
2018-08-03T04:58:12.430Z,47.17
2018-08-03T05:03:17.631Z,47.11
2018-08-03T05:08:22.010Z,47.46
2018-08-03T05:13:25.843Z,47.11
2018-08-03T05:18:30.760Z,46.65
2018-08-03T05:23:34.680Z,47.40
2018-08-03T05:28:38.608Z,46.26
2018-08-03T05:33:42.470Z,45.76
2018-08-03T05:38:46.543Z,46.29
2018-08-03T05:43:50.369Z,45.51
2018-08-03T05:48:54.319Z,45.78
2018-08-03T05:54:02.690Z,45.92
2018-08-03T05:59:07.087Z,45.63
2018-08-03T06:04:10.986Z,45.75
2018-08-03T06:09:14.823Z,46.28
2018-08-03T06:14:18.715Z,46.00
2018-08-03T06:19:22.578Z,46.86
2018-08-03T06:24:27.184Z,47.00
2018-08-03T06:29:31.805Z,47.16
2018-08-03T06:34:36.374Z,47.46
2018-08-03T06:39:40.230Z,47.81
2018-08-03T06:44:45.837Z,47.78
2018-08-03T06:49:49.811Z,47.91
2018-08-03T06:54:53.763Z,48.21
2018-08-03T06:59:57.736Z,48.06
2018-08-03T07:05:07.008Z,48.12
2018-08-03T07:10:11.335Z,48.01
2018-08-03T07:15:21.714Z,47.53
2018-08-03T07:20:26.446Z,47.39
2018-08-03T07:25:30.383Z,47.87
2018-08-03T07:30:34.953Z,47.84
2018-08-03T07:35:38.971Z,47.80
2018-08-03T07:40:47.963Z,47.66
2018-08-03T07:46:05.342Z,47.60
2018-08-03T07:51:27.072Z,47.99
2018-08-03T07:56:31.872Z,47.93
2018-08-03T08:01:35.720Z,47.06
2018-08-03T08:06:39.616Z,47.57
2018-08-03T08:11:43.488Z,47.83
2018-08-03T08:16:48.325Z,47.73
2018-08-03T08:21:52.243Z,47.61
2018-08-03T08:26:56.686Z,47.68
2018-08-03T08:32:00.606Z,47.39
2018-08-03T08:37:04.504Z,47.75
2018-08-03T08:42:08.359Z,48.49
2018-08-03T08:47:15.231Z,48.21
2018-08-03T08:52:20.208Z,47.38
2018-08-03T08:57:25.571Z,48.25
2018-08-03T09:02:30.000Z,48.00
2018-08-03T09:07:33.915Z,49.14
2018-08-03T09:12:37.903Z,48.97
2018-08-03T09:17:41.677Z,49.02
2018-08-03T09:22:45.522Z,49.19
2018-08-03T09:27:49.960Z,49.35
2018-08-03T09:32:53.771Z,49.37
2018-08-03T09:37:57.802Z,49.80
2018-08-03T09:43:01.581Z,49.74
2018-08-03T09:48:05.467Z,49.70
2018-08-03T09:53:09.262Z,50.12
2018-08-03T09:58:13.083Z,50.41
2018-08-03T10:03:16.926Z,50.49
2018-08-03T10:08:21.430Z,50.18
2018-08-03T10:13:25.262Z,49.67
2018-08-03T10:18:30.271Z,49.44
2018-08-03T10:23:34.147Z,50.09
2018-08-03T10:28:38.067Z,50.09
2018-08-03T10:33:41.940Z,50.50
2018-08-03T10:38:45.753Z,50.24
2018-08-03T10:43:49.558Z,51.04
2018-08-03T10:48:53.481Z,51.07
2018-08-03T10:53:57.382Z,51.54
2018-08-03T10:59:01.205Z,52.14
2018-08-03T11:04:05.095Z,51.73
2018-08-03T11:09:10.201Z,51.82
2018-08-03T11:14:14.040Z,52.57
2018-08-03T11:19:19.427Z,52.49
2018-08-03T11:24:23.571Z,51.85
2018-08-03T11:29:27.667Z,51.46
2018-08-03T11:34:31.552Z,52.21
2018-08-03T11:39:35.985Z,51.74
2018-08-03T11:44:40.685Z,51.93
2018-08-03T11:49:47.308Z,52.30
2018-08-03T11:54:51.320Z,52.26
2018-08-03T12:00:07.665Z,51.57
2018-08-03T12:05:12.916Z,51.77
2018-08-03T12:10:16.971Z,51.86
2018-08-03T12:15:21.576Z,52.04
2018-08-03T12:20:26.240Z,51.68
2018-08-03T12:25:30.463Z,51.72
2018-08-03T12:30:35.871Z,52.13
2018-08-03T12:35:41.251Z,51.32
2018-08-03T12:40:46.556Z,51.05
2018-08-03T12:45:52.309Z,51.18
2018-08-03T12:50:58.892Z,51.53
2018-08-03T12:56:02.950Z,51.52
2018-08-03T13:01:07.880Z,52.12
2018-08-03T13:06:11.960Z,51.83
2018-08-03T13:11:16.314Z,51.54
2018-08-03T13:16:20.271Z,51.51
2018-08-03T13:21:35.546Z,51.01
2018-08-03T13:26:39.446Z,51.60
2018-08-03T13:31:43.540Z,51.42
2018-08-03T13:36:47.500Z,50.84
2018-08-03T13:41:51.543Z,51.43
2018-08-03T13:46:55.622Z,51.10
2018-08-03T13:51:59.626Z,51.28
2018-08-03T13:57:03.426Z,51.32
2018-08-03T14:02:18.359Z,50.92
2018-08-03T14:07:22.198Z,50.89
2018-08-03T14:12:26.055Z,51.35
2018-08-03T14:17:29.939Z,51.00
2018-08-03T14:22:34.617Z,51.20
2018-08-03T14:27:38.452Z,50.77
2018-08-03T14:32:42.300Z,51.15
2018-08-03T14:37:46.642Z,51.15
2018-08-03T14:42:51.595Z,51.11
2018-08-03T14:47:55.614Z,50.85
2018-08-03T14:53:00.599Z,51.09
2018-08-03T14:58:04.673Z,51.34
2018-08-03T15:03:09.897Z,51.42
2018-08-03T15:08:13.796Z,51.29
2018-08-03T15:13:17.690Z,51.11
2018-08-03T15:18:21.716Z,50.83
2018-08-03T15:23:25.645Z,51.61
2018-08-03T15:28:29.822Z,51.26
2018-08-03T15:33:35.322Z,51.71
2018-08-03T15:38:39.225Z,51.29
2018-08-03T15:43:43.109Z,51.06
2018-08-03T15:48:47.060Z,51.57
2018-08-03T15:53:51.125Z,51.67
2018-08-03T15:58:56.226Z,51.27
2018-08-03T16:04:00.319Z,50.79
2018-08-03T16:09:06.349Z,50.75
2018-08-03T16:14:10.925Z,51.40
2018-08-03T16:19:18.549Z,50.81
2018-08-03T16:24:26.002Z,50.75
2018-08-03T16:29:30.326Z,50.68
2018-08-03T16:34:34.257Z,50.70
2018-08-03T16:39:38.146Z,50.94
2018-08-03T16:44:42.864Z,51.11
2018-08-03T16:49:46.775Z,50.93
2018-08-03T16:54:50.903Z,50.42
2018-08-03T16:59:54.846Z,50.25
2018-08-03T17:04:58.826Z,50.85
2018-08-03T17:26:25.625Z,51.09
2018-08-03T17:31:29.486Z,50.38
2018-08-03T17:36:34.623Z,50.69
2018-08-03T17:41:39.674Z,50.56
2018-08-03T17:46:43.651Z,51.27
2018-08-03T17:51:47.520Z,50.93
2018-08-03T17:56:51.485Z,50.71
2018-08-03T18:01:55.439Z,51.04
2018-08-03T18:06:59.410Z,50.50
2018-08-03T18:12:03.703Z,51.21
2018-08-03T18:17:08.018Z,51.59
2018-08-03T18:22:11.900Z,50.89
2018-08-03T18:27:15.788Z,50.54
2018-08-03T18:32:19.610Z,50.69
2018-08-03T18:37:23.441Z,51.51
2018-08-03T18:42:27.658Z,50.97
2018-08-03T18:47:31.436Z,51.41
2018-08-03T18:52:35.282Z,51.37
2018-08-03T18:57:39.161Z,51.31
2018-08-03T19:02:44.295Z,51.02
2018-08-03T19:07:48.223Z,50.57
2018-08-03T19:12:52.159Z,50.67
2018-08-03T19:17:56.732Z,51.15
2018-08-03T19:23:00.595Z,50.97
2018-08-03T19:28:04.562Z,51.19
2018-08-03T19:33:08.938Z,51.53
2018-08-03T19:38:13.285Z,51.40
2018-08-03T19:43:17.846Z,51.87
2018-08-03T19:48:21.937Z,52.20
2018-08-03T19:53:25.844Z,51.55
2018-08-03T19:58:30.621Z,51.37
2018-08-03T20:03:34.532Z,51.36
2018-08-03T20:08:38.611Z,51.86
2018-08-03T20:13:42.601Z,50.43
2018-08-03T20:18:46.490Z,50.20
2018-08-03T20:23:50.338Z,50.01
2018-08-03T20:28:54.137Z,50.67
2018-08-03T20:33:57.938Z,50.53
2018-08-03T20:39:01.812Z,51.21
2018-08-03T20:44:05.583Z,50.94
2018-08-03T20:49:09.426Z,50.49
2018-08-03T20:54:13.318Z,50.70
2018-08-03T20:59:17.128Z,49.86
2018-08-03T21:04:21.581Z,50.02
2018-08-03T21:09:26.241Z,49.87
2018-08-03T21:14:30.063Z,49.56
2018-08-03T21:19:33.928Z,50.54
2018-08-03T21:24:38.028Z,48.32
2018-08-03T21:29:41.859Z,47.73
2018-08-03T21:34:45.894Z,49.13
2018-08-03T21:39:49.698Z,49.62
2018-08-03T21:44:54.319Z,48.80
2018-08-03T21:49:58.375Z,48.78
2018-08-03T21:55:05.350Z,48.90
2018-08-03T22:00:13.150Z,49.83
2018-08-03T22:05:17.068Z,49.47
2018-08-03T22:10:21.139Z,49.39
2018-08-03T22:15:25.001Z,49.37
2018-08-03T22:20:28.866Z,49.39
2018-08-03T22:25:33.726Z,49.10
2018-08-03T22:30:37.630Z,48.90
2018-08-03T22:35:41.528Z,49.21
2018-08-03T22:40:45.425Z,49.23
2018-08-03T22:45:49.216Z,49.41
2018-08-03T22:50:53.005Z,49.11
2018-08-03T22:55:56.878Z,49.16
2018-08-03T23:01:00.866Z,49.55
2018-08-03T23:06:04.718Z,48.84
2018-08-03T23:11:08.796Z,48.87
2018-08-03T23:16:13.520Z,48.93
2018-08-03T23:21:17.387Z,48.59
2018-08-03T23:26:21.248Z,49.04
2018-08-03T23:31:25.009Z,48.78
2018-08-03T23:36:28.825Z,47.87
2018-08-03T23:41:32.718Z,47.62
2018-08-03T23:46:36.664Z,47.65
2018-08-03T23:51:40.447Z,48.38
2018-08-03T23:56:44.310Z,47.77
